Tunas, Missouri
Current Conditions -  °F | °C
As of 12:15 PM on Friday 24 Oct 2014 (Local Time) from KH21 Reporting Station
Overcast Overcast  
Wind Chill: 66°   Ceiling: 4700
Heat Index: 66°   Visibility: 10mi
Dew Point: 55°   Wind: 3mph
Humidity: 68%   Direction: 170°S
Pressure: 30.11"   Gusts: NA
Location:  37.85°N, 93.03°W
Report Text: KH21 241715Z AUTO 17003KT 10SM SCT036 OVC047 19/13 A3011 RMK AO2
Loading
Personal Weather Stations






























Interactive Weather Map
Tropical Storm Tracking
New forecast layout! Learn more

10-Day Weather Forecast

Advertisements
Track Severe Weather on mobile